createdAt,value
2023-04-10T00:02:27.953Z,6.13
2023-04-10T00:04:58.562Z,6.09
2023-04-10T00:07:29.387Z,6.06
2023-04-10T00:10:00.011Z,6.03
2023-04-10T00:12:30.849Z,6.02
2023-04-10T00:15:01.315Z,6.00
2023-04-10T00:17:32.066Z,5.98
2023-04-10T00:20:04.061Z,5.97
2023-04-10T00:22:35.306Z,5.95
2023-04-10T00:25:06.517Z,5.94
2023-04-10T00:27:36.944Z,5.93
2023-04-10T00:30:09.543Z,5.91
2023-04-10T00:32:40.592Z,5.88
2023-04-10T00:35:12.517Z,5.86
2023-04-10T00:37:43.227Z,5.83
2023-04-10T00:40:14.301Z,5.82
2023-04-10T00:42:45.232Z,5.80
2023-04-10T00:45:15.684Z,5.78
2023-04-10T00:47:46.187Z,5.74
2023-04-10T00:50:16.981Z,5.71
2023-04-10T00:52:47.118Z,5.67
2023-04-10T00:55:17.741Z,5.63
2023-04-10T00:57:49.894Z,5.60
2023-04-10T01:00:22.419Z,5.57
2023-04-10T01:02:54.899Z,5.52
2023-04-10T01:05:27.645Z,5.47
2023-04-10T01:08:08.463Z,5.43
2023-04-10T01:10:47.730Z,5.41
2023-04-10T01:13:24.330Z,5.41
2023-04-10T01:16:02.820Z,5.40
2023-04-10T01:18:40.521Z,5.40
2023-04-10T01:21:12.761Z,5.37
2023-04-10T01:24:07.411Z,5.36
2023-04-10T01:27:01.575Z,5.35
2023-04-10T01:29:33.663Z,5.33
2023-04-10T01:32:09.431Z,5.32
2023-04-10T01:34:45.175Z,5.30
2023-04-10T01:37:21.289Z,5.27
2023-04-10T01:39:55.887Z,5.25
2023-04-10T01:42:27.997Z,5.22
2023-04-10T01:44:59.580Z,5.21
2023-04-10T01:47:30.191Z,5.19
2023-04-10T01:50:01.848Z,5.15
2023-04-10T01:52:33.909Z,5.12
2023-04-10T01:55:05.295Z,5.10
2023-04-10T01:57:36.984Z,5.07
2023-04-10T02:00:09.836Z,5.01
2023-04-10T02:02:41.022Z,4.97
2023-04-10T02:05:12.323Z,4.94
2023-04-10T02:07:51.312Z,4.91
2023-04-10T02:10:30.324Z,4.90
2023-04-10T02:13:06.623Z,4.90
2023-04-10T02:15:38.389Z,4.90
2023-04-10T02:18:11.155Z,4.89
2023-04-10T02:20:42.500Z,4.87
2023-04-10T02:23:13.235Z,4.86
2023-04-10T02:25:43.736Z,4.85
2023-04-10T02:28:14.473Z,4.85
2023-04-10T02:30:44.769Z,4.84
2023-04-10T02:33:15.428Z,4.82
2023-04-10T02:35:46.065Z,4.82
2023-04-10T02:38:17.492Z,4.81
2023-04-10T02:40:47.971Z,4.80
2023-04-10T02:43:18.907Z,4.77
2023-04-10T02:45:49.202Z,4.74
2023-04-10T02:48:19.516Z,4.71
2023-04-10T02:50:50.031Z,4.68
2023-04-10T02:53:23.205Z,4.66
2023-04-10T02:55:53.779Z,4.64
2023-04-10T02:58:24.149Z,4.61
2023-04-10T03:00:54.640Z,4.59
2023-04-10T03:03:25.838Z,4.55
2023-04-10T03:05:56.564Z,4.52
2023-04-10T03:08:27.440Z,4.49
2023-04-10T03:10:57.797Z,4.48
2023-04-10T03:13:28.311Z,4.47
2023-04-10T03:15:58.658Z,4.46
2023-04-10T03:18:29.877Z,4.46
2023-04-10T03:21:00.431Z,4.47
2023-04-10T03:23:30.830Z,4.47
2023-04-10T03:26:01.890Z,4.48
2023-04-10T03:28:32.955Z,4.48
2023-04-10T03:31:03.912Z,4.48
2023-04-10T03:33:34.740Z,4.50
2023-04-10T03:36:05.570Z,4.50
2023-04-10T03:38:36.043Z,4.51
2023-04-10T03:41:07.243Z,4.52
2023-04-10T03:43:37.656Z,4.52
2023-04-10T03:46:09.335Z,4.53
2023-04-10T03:48:40.315Z,4.54
2023-04-10T03:51:11.349Z,4.55
2023-04-10T03:53:42.088Z,4.56
2023-04-10T03:56:12.820Z,4.56
2023-04-10T03:58:43.532Z,4.57
2023-04-10T04:01:14.100Z,4.57
2023-04-10T04:03:45.525Z,4.59
2023-04-10T04:06:16.140Z,4.60
2023-04-10T04:08:46.927Z,4.61
2023-04-10T04:11:17.264Z,4.63
2023-04-10T04:13:47.570Z,4.63
2023-04-10T04:16:18.655Z,4.65
2023-04-10T04:18:49.540Z,4.66
2023-04-10T04:21:20.811Z,4.67
2023-04-10T04:23:51.683Z,4.69
2023-04-10T04:26:22.256Z,4.70
2023-04-10T04:28:52.670Z,4.71
2023-04-10T04:31:24.328Z,4.73
2023-04-10T04:33:54.992Z,4.73
2023-04-10T04:36:25.838Z,4.76
2023-04-10T04:38:56.572Z,4.75
2023-04-10T04:41:27.701Z,4.77
2023-04-10T04:43:58.072Z,4.77
2023-04-10T04:46:29.229Z,4.76
2023-04-10T04:49:00.455Z,4.74
2023-04-10T04:51:31.627Z,4.73
2023-04-10T04:54:02.144Z,4.71
2023-04-10T04:56:32.601Z,4.70
2023-04-10T04:59:03.118Z,4.68
2023-04-10T05:01:33.570Z,4.67
2023-04-10T05:04:04.230Z,4.68
2023-04-10T05:06:37.426Z,4.68
2023-04-10T05:09:08.108Z,4.69
2023-04-10T05:11:38.768Z,4.71
2023-04-10T05:14:09.132Z,4.75
2023-04-10T05:16:40.115Z,4.78
2023-04-10T05:19:10.472Z,4.82
2023-04-10T05:21:41.317Z,4.85
2023-04-10T05:24:12.514Z,4.90
2023-04-10T05:26:43.147Z,4.95
2023-04-10T05:29:14.137Z,4.99
2023-04-10T05:31:44.498Z,5.03
2023-04-10T05:34:15.585Z,5.07
2023-04-10T05:36:45.984Z,5.11
2023-04-10T05:39:17.269Z,5.15
2023-04-10T05:41:48.789Z,5.21
2023-04-10T05:44:19.769Z,5.24
2023-04-10T05:46:50.700Z,5.28
2023-04-10T05:49:21.587Z,5.32
2023-04-10T05:51:53.406Z,5.37
2023-04-10T05:54:24.209Z,5.42
2023-04-10T05:56:54.741Z,5.49
2023-04-10T05:59:25.801Z,5.54
2023-04-10T06:01:58.032Z,5.61
2023-04-10T06:04:28.654Z,5.68
2023-04-10T06:06:59.933Z,5.75
2023-04-10T06:09:30.404Z,5.81
2023-04-10T06:12:01.324Z,5.87
2023-04-10T06:14:31.766Z,5.95
2023-04-10T06:17:02.236Z,6.02
2023-04-10T06:19:32.671Z,6.10
2023-04-10T06:22:03.255Z,6.18
2023-04-10T06:24:34.349Z,6.27
2023-04-10T06:27:05.452Z,6.35
2023-04-10T06:29:36.742Z,6.43
2023-04-10T06:32:07.369Z,6.51
2023-04-10T06:34:38.373Z,6.61
2023-04-10T06:37:09.111Z,6.72
2023-04-10T06:39:40.414Z,6.81
2023-04-10T06:42:10.858Z,6.92
2023-04-10T06:44:41.846Z,7.01
2023-04-10T06:47:13.299Z,7.10
2023-04-10T06:49:44.008Z,7.19
2023-04-10T06:52:14.886Z,7.28
2023-04-10T06:54:45.215Z,7.38
2023-04-10T06:57:16.050Z,7.47
2023-04-10T06:59:46.483Z,7.57
2023-04-10T07:02:17.206Z,7.65
2023-04-10T07:04:48.054Z,7.74
2023-04-10T07:07:19.382Z,7.82
2023-04-10T07:09:50.289Z,7.88
2023-04-10T07:12:20.962Z,7.95
2023-04-10T07:14:51.307Z,8.01
2023-04-10T07:17:22.355Z,8.05
2023-04-10T07:19:53.100Z,8.10
2023-04-10T07:22:23.981Z,8.18
2023-04-10T07:24:54.725Z,8.26
2023-04-10T07:27:26.394Z,8.35
2023-04-10T07:29:58.188Z,8.45
2023-04-10T07:32:28.764Z,8.52
2023-04-10T07:34:59.220Z,8.61
2023-04-10T07:37:30.426Z,8.69
2023-04-10T07:40:02.499Z,8.78
2023-04-10T07:42:33.441Z,8.88
2023-04-10T07:45:03.918Z,8.97
2023-04-10T07:47:34.388Z,9.03
2023-04-10T07:50:06.188Z,9.10
2023-04-10T07:52:36.518Z,9.16
2023-04-10T07:55:08.341Z,9.22
2023-04-10T07:57:41.615Z,9.28
2023-04-10T08:00:16.163Z,9.35
2023-04-10T08:02:46.706Z,9.41
2023-04-10T08:05:17.638Z,9.47
2023-04-10T08:07:48.685Z,9.55
2023-04-10T08:10:19.825Z,9.61
2023-04-10T08:12:50.562Z,9.65
2023-04-10T08:15:21.605Z,9.68
2023-04-10T08:17:52.023Z,9.72
2023-04-10T08:20:22.584Z,9.80
2023-04-10T08:22:53.040Z,9.88
2023-04-10T08:25:23.737Z,9.95
2023-04-10T08:27:54.182Z,10.01
2023-04-10T08:30:24.691Z,10.06
2023-04-10T08:32:55.406Z,10.13
2023-04-10T08:35:25.737Z,10.23
2023-04-10T08:38:11.518Z,10.30
2023-04-10T08:40:44.742Z,10.38
2023-04-10T08:43:16.249Z,10.43
2023-04-10T08:45:46.963Z,10.51
2023-04-10T08:48:20.525Z,10.59
2023-04-10T08:50:52.326Z,10.66
2023-04-10T08:53:25.746Z,10.74
2023-04-10T08:55:56.677Z,10.81
2023-04-10T08:58:28.947Z,10.88
2023-04-10T09:01:00.364Z,10.97
2023-04-10T09:03:31.933Z,11.04
2023-04-10T09:06:05.532Z,11.05
2023-04-10T09:08:36.402Z,11.14
2023-04-10T09:11:08.125Z,11.21
2023-04-10T09:13:43.872Z,11.28
2023-04-10T09:16:17.484Z,11.35
2023-04-10T09:18:50.722Z,11.40
2023-04-10T09:21:22.550Z,11.45
2023-04-10T09:24:02.226Z,11.49
2023-04-10T09:26:33.993Z,11.54
2023-04-10T09:29:05.769Z,11.58
2023-04-10T09:31:38.592Z,11.65
2023-04-10T09:34:17.247Z,11.75
2023-04-10T09:36:56.064Z,11.83
2023-04-10T09:39:36.010Z,11.86
2023-04-10T09:42:07.258Z,11.87
2023-04-10T09:44:39.080Z,11.91
2023-04-10T09:47:19.440Z,11.97
2023-04-10T09:49:52.229Z,12.06
2023-04-10T09:52:26.178Z,12.12
2023-04-10T09:54:57.702Z,12.18
2023-04-10T09:57:29.680Z,12.23
2023-04-10T10:00:01.595Z,12.29
2023-04-10T10:02:37.365Z,12.36
2023-04-10T10:05:10.115Z,12.44
2023-04-10T10:07:41.488Z,12.52
2023-04-10T10:10:12.920Z,12.58
2023-04-10T10:12:51.742Z,12.64
2023-04-10T10:15:30.960Z,12.72
2023-04-10T10:18:11.176Z,12.78
2023-04-10T10:20:47.685Z,12.84
2023-04-10T10:23:20.837Z,12.92
2023-04-10T10:25:53.144Z,12.97
2023-04-10T10:28:25.348Z,13.03
2023-04-10T10:30:56.673Z,13.08
2023-04-10T10:33:28.769Z,13.12
2023-04-10T10:36:01.449Z,13.20
2023-04-10T10:38:32.611Z,13.25
2023-04-10T10:41:12.306Z,13.31
2023-04-10T10:43:53.374Z,13.37
2023-04-10T10:46:33.598Z,13.46
2023-04-10T10:49:04.724Z,13.52
2023-04-10T10:51:48.067Z,13.59
2023-04-10T10:54:36.615Z,13.65
2023-04-10T10:57:48.456Z,13.68
2023-04-10T11:00:21.096Z,13.74
2023-04-10T11:03:29.935Z,13.78
2023-04-10T11:06:02.768Z,13.81
2023-04-10T11:08:54.090Z,13.84
2023-04-10T11:11:27.306Z,13.88
2023-04-10T11:14:19.893Z,13.93
2023-04-10T11:16:50.932Z,13.97
2023-04-10T11:19:25.085Z,14.04
2023-04-10T11:22:15.939Z,14.11
2023-04-10T11:24:57.315Z,14.21
2023-04-10T11:27:52.932Z,14.27
2023-04-10T11:30:31.584Z,14.33
2023-04-10T11:33:03.750Z,14.38
2023-04-10T11:35:34.967Z,14.42
2023-04-10T11:38:19.239Z,14.45
2023-04-10T11:41:01.476Z,14.51
2023-04-10T11:43:32.341Z,14.56
2023-04-10T11:46:05.198Z,14.60
2023-04-10T11:48:36.752Z,14.68
2023-04-10T11:51:15.512Z,14.72
2023-04-10T11:53:46.401Z,14.77
2023-04-10T11:56:22.416Z,14.83
2023-04-10T11:58:55.809Z,14.87
2023-04-10T12:01:27.142Z,14.91
2023-04-10T12:03:58.058Z,14.96
2023-04-10T12:06:29.494Z,14.99
2023-04-10T12:09:00.188Z,15.02
2023-04-10T12:11:30.669Z,15.07
2023-04-10T12:14:01.518Z,15.11
2023-04-10T12:16:33.386Z,15.15
2023-04-10T12:19:04.763Z,15.17
2023-04-10T12:21:36.624Z,15.19
2023-04-10T12:24:07.561Z,15.21
2023-04-10T12:26:38.255Z,15.24
2023-04-10T12:29:09.890Z,15.26
2023-04-10T12:31:40.356Z,15.30
2023-04-10T12:34:11.438Z,15.34
2023-04-10T12:36:42.172Z,15.39
2023-04-10T12:39:25.437Z,15.41
2023-04-10T12:42:11.751Z,15.45
2023-04-10T12:44:54.662Z,15.49
2023-04-10T12:47:25.982Z,15.54
2023-04-10T12:50:14.482Z,15.56
2023-04-10T12:52:46.619Z,15.61
2023-04-10T12:55:19.873Z,15.66
2023-04-10T12:57:51.714Z,15.73
2023-04-10T13:00:22.619Z,15.80
2023-04-10T13:02:53.635Z,15.84
2023-04-10T13:05:25.219Z,15.86
2023-04-10T13:07:56.280Z,15.91
2023-04-10T13:10:26.949Z,15.96
2023-04-10T13:12:58.020Z,15.99
2023-04-10T13:15:28.701Z,16.03
2023-04-10T13:17:59.453Z,16.06
2023-04-10T13:20:31.136Z,16.08
2023-04-10T13:23:02.777Z,16.09
2023-04-10T13:25:35.543Z,16.10
2023-04-10T13:28:10.153Z,16.11
2023-04-10T13:30:42.509Z,16.11
2023-04-10T13:33:13.789Z,16.08
2023-04-10T13:35:44.684Z,16.09
2023-04-10T13:38:15.892Z,16.11
2023-04-10T13:40:46.542Z,16.12
2023-04-10T13:43:17.464Z,16.14
2023-04-10T13:45:49.996Z,16.17
2023-04-10T13:48:24.376Z,16.20
2023-04-10T13:50:58.064Z,16.24
2023-04-10T13:53:29.198Z,16.27
2023-04-10T13:56:00.391Z,16.26
2023-04-10T13:58:32.256Z,16.30
2023-04-10T14:01:03.462Z,16.33
2023-04-10T14:03:34.648Z,16.36
2023-04-10T14:06:05.987Z,16.38
2023-04-10T14:08:36.736Z,16.43
2023-04-10T14:11:08.038Z,16.44
2023-04-10T14:13:38.463Z,16.47
2023-04-10T14:16:09.980Z,16.51
2023-04-10T14:18:40.508Z,16.55
2023-04-10T14:21:11.548Z,16.58
2023-04-10T14:23:42.725Z,16.61
2023-04-10T14:26:13.133Z,16.64
2023-04-10T14:28:43.577Z,16.68
2023-04-10T14:31:14.001Z,16.73
2023-04-10T14:33:44.864Z,16.76
2023-04-10T14:36:15.572Z,16.82
2023-04-10T14:38:46.346Z,16.86
2023-04-10T14:41:16.710Z,16.88
2023-04-10T14:43:47.037Z,16.91
2023-04-10T14:46:18.276Z,16.93
2023-04-10T14:48:49.035Z,16.96
2023-04-10T14:51:19.728Z,16.98
2023-04-10T14:53:50.403Z,16.98
2023-04-10T14:56:21.548Z,16.99
2023-04-10T14:58:51.952Z,17.00
2023-04-10T15:01:22.784Z,16.98
2023-04-10T15:03:54.167Z,16.96
2023-04-10T15:06:25.041Z,16.96
2023-04-10T15:08:55.392Z,16.95
2023-04-10T15:11:25.816Z,16.95
2023-04-10T15:13:56.744Z,16.94
2023-04-10T15:16:28.362Z,16.95
2023-04-10T15:18:59.190Z,16.93
2023-04-10T15:21:32.511Z,16.94
2023-04-10T15:24:02.906Z,16.94
2023-04-10T15:26:33.636Z,16.94
2023-04-10T15:29:04.792Z,16.94
2023-04-10T15:31:35.696Z,16.93
2023-04-10T15:34:06.137Z,16.92
2023-04-10T15:36:36.735Z,16.90
2023-04-10T15:39:07.298Z,16.89
2023-04-10T15:41:38.504Z,16.87
2023-04-10T15:44:09.298Z,16.83
2023-04-10T15:46:40.440Z,16.83
2023-04-10T15:49:11.754Z,16.81
2023-04-10T15:51:42.125Z,16.78
2023-04-10T15:54:13.007Z,16.77
2023-04-10T15:56:44.116Z,16.75
2023-04-10T15:59:14.705Z,16.75
2023-04-10T16:01:45.176Z,16.73
2023-04-10T16:04:15.819Z,16.72
2023-04-10T16:06:46.939Z,16.72
2023-04-10T16:09:25.683Z,16.71
2023-04-10T16:11:57.940Z,16.70
2023-04-10T16:14:28.304Z,16.70
2023-04-10T16:16:58.824Z,16.70
2023-04-10T16:19:32.381Z,16.70
2023-04-10T16:22:02.947Z,16.71
2023-04-10T16:24:33.545Z,16.70
2023-04-10T16:27:04.035Z,16.69
2023-04-10T16:29:34.759Z,16.66
2023-04-10T16:32:05.559Z,16.61
2023-04-10T16:34:35.953Z,16.55
2023-04-10T16:37:06.771Z,16.47
2023-04-10T16:39:37.282Z,16.39
2023-04-10T16:42:07.738Z,16.31
2023-04-10T16:44:38.273Z,16.24
2023-04-10T16:47:09.265Z,16.16
2023-04-10T16:49:40.320Z,16.08
2023-04-10T16:52:10.721Z,16.03
2023-04-10T16:54:41.488Z,15.97
2023-04-10T16:57:12.486Z,15.91
2023-04-10T16:59:43.833Z,15.86
2023-04-10T17:02:14.374Z,15.81
2023-04-10T17:04:45.140Z,15.75
2023-04-10T17:07:15.577Z,15.70
2023-04-10T17:09:46.059Z,15.60
2023-04-10T17:12:16.809Z,15.59
2023-04-10T17:14:47.568Z,15.54
2023-04-10T17:17:18.357Z,15.48
2023-04-10T17:19:49.162Z,15.42
2023-04-10T17:22:20.708Z,15.37
2023-04-10T17:24:51.117Z,15.31
2023-04-10T17:27:21.549Z,15.28
2023-04-10T17:29:52.606Z,15.23
2023-04-10T17:32:23.017Z,15.18
2023-04-10T17:34:53.713Z,15.15
2023-04-10T17:37:24.664Z,15.11
2023-04-10T17:39:55.006Z,15.09
2023-04-10T17:42:27.229Z,15.05
2023-04-10T17:44:57.570Z,15.03
2023-04-10T17:47:28.295Z,14.99
2023-04-10T17:49:59.185Z,14.95
2023-04-10T17:52:29.974Z,14.89
2023-04-10T17:55:02.249Z,14.85
2023-04-10T17:57:32.580Z,14.78
2023-04-10T18:00:03.189Z,14.71
2023-04-10T18:02:33.976Z,14.65
2023-04-10T18:05:04.875Z,14.58
2023-04-10T18:07:35.243Z,14.50
2023-04-10T18:10:05.966Z,14.45
2023-04-10T18:12:36.754Z,14.40
2023-04-10T18:15:09.296Z,14.34
2023-04-10T18:17:39.899Z,14.29
2023-04-10T18:20:11.854Z,14.24
2023-04-10T18:22:42.225Z,14.19
2023-04-10T18:25:13.110Z,14.16
2023-04-10T18:27:55.282Z,14.12
2023-04-10T18:30:38.960Z,14.07
2023-04-10T18:33:11.450Z,14.04
2023-04-10T18:35:42.551Z,14.01
2023-04-10T18:38:13.287Z,13.97
2023-04-10T18:40:43.705Z,13.94
2023-04-10T18:43:14.243Z,13.90
2023-04-10T18:45:44.739Z,13.85
2023-04-10T18:48:15.477Z,13.82
2023-04-10T18:50:46.013Z,13.78
2023-04-10T18:53:16.415Z,13.74
2023-04-10T18:55:53.122Z,13.71
2023-04-10T18:58:24.216Z,13.69
2023-04-10T19:00:55.622Z,13.65
2023-04-10T19:03:26.720Z,13.63
2023-04-10T19:05:57.323Z,13.60
2023-04-10T19:08:28.171Z,13.58
2023-04-10T19:10:58.482Z,13.55
2023-04-10T19:13:29.279Z,13.54
2023-04-10T19:15:59.722Z,13.52
2023-04-10T19:18:30.725Z,13.50
2023-04-10T19:21:01.398Z,13.47
2023-04-10T19:23:32.067Z,13.46
2023-04-10T19:26:02.545Z,13.44
2023-04-10T19:28:34.680Z,13.42
2023-04-10T19:31:05.761Z,13.40
2023-04-10T19:33:36.437Z,13.39
2023-04-10T19:36:08.429Z,13.37
2023-04-10T19:38:41.099Z,13.35
2023-04-10T19:41:17.565Z,13.33
2023-04-10T19:43:48.727Z,13.31
2023-04-10T19:46:20.286Z,13.29
2023-04-10T19:48:51.812Z,13.27
2023-04-10T19:51:22.799Z,13.26
2023-04-10T19:53:55.619Z,13.25
2023-04-10T19:56:28.570Z,13.24
2023-04-10T19:58:59.910Z,13.23
2023-04-10T20:01:30.990Z,13.22
2023-04-10T20:04:01.879Z,13.19
2023-04-10T20:06:33.003Z,13.17
2023-04-10T20:09:03.401Z,13.13
2023-04-10T20:11:33.839Z,13.11
2023-04-10T20:14:04.802Z,13.09
2023-04-10T20:16:35.310Z,13.08
2023-04-10T20:19:06.194Z,13.07
2023-04-10T20:21:36.729Z,13.05
2023-04-10T20:24:08.033Z,13.04
2023-04-10T20:26:39.058Z,13.02
2023-04-10T20:29:09.473Z,13.00
2023-04-10T20:31:40.214Z,12.99
2023-04-10T20:34:11.145Z,12.96
2023-04-10T20:36:41.850Z,12.96
2023-04-10T20:39:12.264Z,12.94
2023-04-10T20:41:42.896Z,12.94
2023-04-10T20:44:13.584Z,12.93
2023-04-10T20:46:44.879Z,12.92
2023-04-10T20:49:16.331Z,12.91
2023-04-10T20:51:47.775Z,12.90
2023-04-10T20:54:18.929Z,12.89
2023-04-10T20:56:50.387Z,12.88
2023-04-10T20:59:21.476Z,12.88
2023-04-10T21:01:51.970Z,12.88
2023-04-10T21:04:22.754Z,12.87
2023-04-10T21:06:53.513Z,12.85
2023-04-10T21:09:23.954Z,12.85
2023-04-10T21:11:54.581Z,12.84
2023-04-10T21:14:25.334Z,12.83
2023-04-10T21:16:56.418Z,12.83
2023-04-10T21:19:27.092Z,12.83
2023-04-10T21:21:58.563Z,12.82
2023-04-10T21:24:29.288Z,12.81
2023-04-10T21:26:59.674Z,12.80
2023-04-10T21:29:30.969Z,12.81
2023-04-10T21:32:01.380Z,12.80
2023-04-10T21:34:31.749Z,12.80
2023-04-10T21:37:02.186Z,12.80
2023-04-10T21:39:33.061Z,12.78
2023-04-10T21:42:03.437Z,12.77
2023-04-10T21:44:33.868Z,12.76
2023-04-10T21:47:04.842Z,12.76
2023-04-10T21:49:35.613Z,12.74
2023-04-10T21:52:07.261Z,12.73
2023-04-10T21:54:37.782Z,12.72
2023-04-10T21:57:08.703Z,12.72
2023-04-10T21:59:39.052Z,12.74
2023-04-10T22:02:10.727Z,12.75
2023-04-10T22:04:53.578Z,12.79
2023-04-10T22:07:25.246Z,12.81
2023-04-10T22:09:55.654Z,12.85
2023-04-10T22:12:26.086Z,12.88
2023-04-10T22:14:56.502Z,12.90
2023-04-10T22:17:27.201Z,12.90
2023-04-10T22:19:57.917Z,12.89
2023-04-10T22:22:28.328Z,12.85
2023-04-10T22:24:59.255Z,12.88
2023-04-10T22:27:30.019Z,12.87
2023-04-10T22:30:03.864Z,12.86
2023-04-10T22:32:35.080Z,12.86
2023-04-10T22:35:06.006Z,12.86
2023-04-10T22:37:36.874Z,12.88
2023-04-10T22:40:09.406Z,12.89
2023-04-10T22:42:40.584Z,12.90
2023-04-10T22:45:13.606Z,12.91
2023-04-10T22:47:44.029Z,12.89
2023-04-10T22:50:14.688Z,12.90
2023-04-10T22:52:45.433Z,12.88
2023-04-10T22:55:15.949Z,12.85
2023-04-10T22:57:49.666Z,12.80
2023-04-10T23:00:20.756Z,12.76
2023-04-10T23:02:51.134Z,12.69
2023-04-10T23:05:21.608Z,12.64
2023-04-10T23:07:52.057Z,12.60
2023-04-10T23:10:23.242Z,12.55
2023-04-10T23:12:54.311Z,12.51
2023-04-10T23:15:24.593Z,12.45
2023-04-10T23:17:55.806Z,12.40
2023-04-10T23:20:26.807Z,12.34
2023-04-10T23:22:57.329Z,12.30
2023-04-10T23:25:27.802Z,12.25
2023-04-10T23:27:59.824Z,12.20
2023-04-10T23:30:30.650Z,12.16
2023-04-10T23:33:01.913Z,12.10
2023-04-10T23:35:33.051Z,12.05
2023-04-10T23:38:03.746Z,12.00
2023-04-10T23:40:34.175Z,11.96
2023-04-10T23:43:04.596Z,11.93
2023-04-10T23:45:35.288Z,11.89
2023-04-10T23:48:06.131Z,11.84
2023-04-10T23:50:36.969Z,11.78
2023-04-10T23:53:08.529Z,11.72
2023-04-10T23:55:39.732Z,11.65
2023-04-10T23:58:10.477Z,11.59
